Time;durP1;ratioP1;P1;durP2;ratioP2;P2;SDS_P1;SDS_P2;PMS_P1;PMS_P2;Temp;Humidity;BMP_temperature;BMP_pressure;BME280_temperature;BME280_humidity;BME280_pressure;Samples;Min_cycle;Max_cycle;Signal;HPM_P1;HPM_P2
2022/04/23 00:00:33;;;;;;;14.27;10.77;;;;;;;11.92;nan;99177.94;5022257;28;20492;-80
2022/04/23 00:02:59;;;;;;;13.18;10.27;;;;;;;11.84;nan;99178.84;5020256;28;20442;-79
2022/04/23 00:05:25;;;;;;;14.05;10.60;;;;;;;11.75;nan;99173.91;5036870;28;20042;-81
2022/04/23 00:07:50;;;;;;;12.57;10.27;;;;;;;11.69;nan;99171.00;5017970;28;20046;-79
2022/04/23 00:10:15;;;;;;;14.93;11.32;;;;;;;11.63;nan;99171.81;5015482;28;20034;-79
2022/04/23 00:12:43;;;;;;;15.07;10.88;;;;;;;11.66;nan;99175.88;5033857;28;20041;-79
2022/04/23 00:15:09;;;;;;;15.90;11.85;;;;;;;11.62;nan;99180.72;5025503;28;20030;-80
2022/04/23 00:17:34;;;;;;;13.90;10.98;;;;;;;11.62;nan;99174.63;5020816;28;20053;-81
2022/04/23 00:20:00;;;;;;;12.73;10.05;;;;;;;11.59;nan;99169.72;5025173;28;20040;-79
2022/04/23 00:22:25;;;;;;;12.25;8.82;;;;;;;11.52;nan;99174.97;5038877;28;20042;-80
2022/04/23 00:24:51;;;;;;;11.65;9.88;;;;;;;11.39;nan;99177.47;5021457;28;20129;-78
2022/04/23 00:27:16;;;;;;;15.85;12.07;;;;;;;11.31;nan;99178.44;5020717;28;20068;-79
2022/04/23 00:29:42;;;;;;;15.23;11.90;;;;;;;11.26;nan;99181.66;5037139;28;20537;-81
2022/04/23 00:32:08;;;;;;;15.02;11.63;;;;;;;11.18;nan;99173.84;5038753;28;20034;-79
2022/04/23 00:34:34;;;;;;;14.75;11.93;;;;;;;11.11;nan;99177.41;5038648;28;20113;-79
2022/04/23 00:37:00;;;;;;;16.45;12.38;;;;;;;11.10;nan;99173.13;5022012;28;20068;-80
2022/04/23 00:39:26;;;;;;;11.80;9.73;;;;;;;11.10;nan;99175.78;5038925;28;20033;-82
2022/04/23 00:41:52;;;;;;;15.02;12.13;;;;;;;11.00;nan;99170.81;5023962;28;20137;-82
2022/04/23 00:44:18;;;;;;;16.77;11.65;;;;;;;10.89;nan;99174.75;5025963;28;20034;-81
2022/04/23 00:46:44;;;;;;;17.70;13.80;;;;;;;10.87;nan;99170.66;5026335;28;20079;-79
2022/04/23 00:49:11;;;;;;;15.38;12.68;;;;;;;10.90;nan;99171.13;5028385;28;20398;-80
2022/04/23 00:51:38;;;;;;;15.38;11.50;;;;;;;10.93;nan;99168.09;5045427;28;20104;-80
2022/04/23 00:54:09;;;;;;;15.73;12.20;;;;;;;10.85;nan;99170.84;5018966;28;20470;-80
2022/04/23 00:56:40;;;;;;;16.33;12.27;;;;;;;10.89;nan;99171.28;5021200;28;20038;-80
2022/04/23 00:59:10;;;;;;;;;;;;;;;10.89;nan;99180.03;5039320;28;20095;-82
2022/04/23 01:01:36;;;;;;;15.55;11.55;;;;;;;10.79;nan;99182.16;5017850;28;19917;-81
2022/04/23 01:04:06;;;;;;;15.50;11.18;;;;;;;10.73;nan;99183.75;5021020;28;20033;-85
2022/04/23 01:06:34;;;;;;;16.38;12.15;;;;;;;10.73;nan;99183.75;5021210;28;20060;-79
2022/04/23 01:09:02;;;;;;;16.63;11.30;;;;;;;10.70;nan;99175.34;5019542;28;20517;-78
2022/04/23 01:11:27;;;;;;;12.98;10.50;;;;;;;10.60;nan;99183.56;5036893;28;20040;-82
2022/04/23 01:13:53;;;;;;;11.52;8.98;;;;;;;10.56;nan;99187.59;5018631;28;20030;-79
2022/04/23 01:16:19;;;;;;;14.82;10.40;;;;;;;10.52;nan;99186.34;5038061;28;20107;-78
2022/04/23 01:18:45;;;;;;;13.68;10.88;;;;;;;10.54;nan;99193.06;5036726;28;20044;-80
2022/04/23 01:21:10;;;;;;;17.10;12.88;;;;;;;10.46;nan;99189.69;5019970;28;20519;-80
2022/04/23 01:23:41;;;;;;;17.52;13.43;;;;;;;10.56;nan;99195.53;5037811;28;20048;-81
2022/04/23 01:26:08;;;;;;;16.77;12.50;;;;;;;10.72;nan;99200.59;5018947;28;20510;-79
2022/04/23 01:28:39;;;;;;;16.83;13.15;;;;;;;10.79;nan;99204.13;5020439;28;20048;-80
2022/04/23 01:31:05;;;;;;;16.38;11.88;;;;;;;10.91;nan;99206.31;5018664;28;20037;-79
2022/04/23 01:33:33;;;;;;;17.08;12.13;;;;;;;10.94;nan;99209.41;5035409;28;20026;-82
2022/04/23 01:35:58;;;;;;;13.93;11.00;;;;;;;10.99;nan;99207.03;5019942;28;20058;-78
2022/04/23 01:38:24;;;;;;;14.35;11.90;;;;;;;11.04;nan;99203.81;5033512;28;20021;-80
2022/04/23 01:40:49;;;;;;;14.23;10.65;;;;;;;11.02;nan;99208.47;5036427;28;20521;-79
2022/04/23 01:43:14;;;;;;;14.27;10.70;;;;;;;11.02;nan;99205.81;5021688;28;20044;-79
2022/04/23 01:45:40;;;;;;;16.10;12.43;;;;;;;10.98;nan;99205.38;5034704;28;20052;-80
2022/04/23 01:48:06;;;;;;;15.35;12.20;;;;;;;11.03;nan;99202.16;5037231;28;20040;-79
2022/04/23 01:50:32;;;;;;;13.98;10.95;;;;;;;11.08;nan;99204.25;5018556;28;20033;-79
2022/04/23 01:52:58;;;;;;;12.32;8.68;;;;;;;11.05;nan;99205.44;5015893;28;20124;-80
2022/04/23 01:55:23;;;;;;;13.27;10.55;;;;;;;11.01;nan;99199.72;5036881;28;20038;-80
2022/04/23 01:57:48;;;;;;;14.57;11.68;;;;;;;11.03;nan;99207.44;5015894;28;20042;-80
2022/04/23 02:00:14;;;;;;;15.30;12.48;;;;;;;10.99;nan;99208.84;5034766;28;20041;-80
2022/04/23 02:02:43;;;;;;;13.52;11.07;;;;;;;11.00;nan;99200.72;5016087;28;20036;-80
2022/04/23 02:05:10;;;;;;;14.98;11.35;;;;;;;11.03;nan;99208.25;5017667;28;20026;-79
2022/04/23 02:07:44;;;;;;;13.13;10.68;;;;;;;11.01;nan;99198.88;5017518;28;20036;-80
2022/04/23 02:10:14;;;;;;;13.63;11.38;;;;;;;10.96;nan;99203.91;5035865;28;20032;-80
2022/04/23 02:12:40;;;;;;;15.90;12.35;;;;;;;10.92;nan;99200.03;5016532;28;20056;-80
2022/04/23 02:15:10;;;;;;;14.95;11.73;;;;;;;10.94;nan;99198.00;5016185;28;20031;-80
2022/04/23 02:17:49;;;;;;;14.70;11.85;;;;;;;10.93;nan;99194.53;5034162;28;20039;-80
2022/04/23 02:20:16;;;;;;;15.60;12.32;;;;;;;10.95;nan;99192.53;5032719;28;20045;-80
2022/04/23 02:22:41;;;;;;;14.82;11.85;;;;;;;10.96;nan;99186.22;5034692;28;20030;-80
2022/04/23 02:25:08;;;;;;;17.10;13.50;;;;;;;11.03;nan;99183.66;5018963;28;20067;-80
2022/04/23 02:27:41;;;;;;;15.63;11.93;;;;;;;11.03;nan;99171.22;5034308;28;20032;-80
2022/04/23 02:30:07;;;;;;;16.25;12.18;;;;;;;11.03;nan;99178.34;5035564;28;20087;-80
2022/04/23 02:32:32;;;;;;;13.35;10.63;;;;;;;11.06;nan;99170.06;5014926;28;20505;-80
2022/04/23 02:34:58;;;;;;;14.85;12.02;;;;;;;10.98;nan;99170.16;5034655;28;20025;-80
2022/04/23 02:37:26;;;;;;;17.85;13.13;;;;;;;10.91;nan;99171.94;5035867;28;20039;-80
2022/04/23 02:39:52;;;;;;;18.33;14.32;;;;;;;10.86;nan;99161.09;5031168;28;20141;-80
2022/04/23 02:42:17;;;;;;;16.80;13.25;;;;;;;10.88;nan;99169.66;5014884;28;20043;-79
2022/04/23 02:44:45;;;;;;;15.88;12.18;;;;;;;10.83;nan;99165.75;5012962;28;20040;-80
2022/04/23 02:47:10;;;;;;;15.65;12.38;;;;;;;10.77;nan;99163.03;5013856;28;20033;-80
2022/04/23 02:49:36;;;;;;;17.83;12.98;;;;;;;10.69;nan;99169.25;5030406;28;20034;-80
2022/04/23 02:52:01;;;;;;;16.90;12.80;;;;;;;10.60;nan;99175.63;5028847;28;20179;-80
2022/04/23 02:54:26;;;;;;;14.55;11.30;;;;;;;10.53;nan;99172.91;5032097;28;20029;-81
2022/04/23 02:56:54;;;;;;;17.70;13.77;;;;;;;10.46;nan;99179.94;5034346;28;20090;-80
2022/04/23 02:59:19;;;;;;;17.02;13.85;;;;;;;10.38;nan;99172.13;5034263;28;20522;-81
2022/04/23 03:01:44;;;;;;;16.90;13.57;;;;;;;10.44;nan;99174.03;5029654;28;20044;-80
2022/04/23 03:04:10;;;;;;;16.83;13.88;;;;;;;10.39;nan;99174.59;5015196;28;20030;-80
2022/04/23 03:06:37;;;;;;;19.73;13.65;;;;;;;10.39;nan;99173.75;5029387;28;20045;-80
2022/04/23 03:09:03;;;;;;;16.10;13.23;;;;;;;10.37;nan;99181.06;5029140;28;20033;-80
2022/04/23 03:11:32;;;;;;;19.95;14.48;;;;;;;10.28;nan;99182.97;5029376;28;20029;-80
2022/04/23 03:13:58;;;;;;;15.88;12.48;;;;;;;10.31;nan;99173.88;5029211;28;20029;-80
2022/04/23 03:16:26;;;;;;;15.85;13.05;;;;;;;10.27;nan;99181.28;5029386;28;20033;-80
2022/04/23 03:18:52;;;;;;;14.13;11.48;;;;;;;10.19;nan;99179.56;5028924;28;20040;-81
2022/04/23 03:21:17;;;;;;;14.82;11.82;;;;;;;10.13;nan;99175.03;5011247;28;20041;-81
2022/04/23 03:23:43;;;;;;;18.08;13.35;;;;;;;10.03;nan;99179.75;5011617;28;20104;-80
2022/04/23 03:26:08;;;;;;;16.92;13.70;;;;;;;10.04;nan;99186.69;5010632;28;20100;-80
2022/04/23 03:28:35;;;;;;;17.60;14.15;;;;;;;10.05;nan;99177.75;5030053;28;20407;-80
2022/04/23 03:31:00;;;;;;;16.13;12.93;;;;;;;10.08;nan;99185.31;5009919;28;20037;-80
2022/04/23 03:33:25;;;;;;;14.65;11.50;;;;;;;10.06;nan;99183.84;5029412;28;20030;-80
2022/04/23 03:35:51;;;;;;;18.45;14.07;;;;;;;9.94;nan;99191.41;5010879;28;20038;-80
2022/04/23 03:38:17;;;;;;;16.10;12.48;;;;;;;9.90;nan;99185.66;5028360;28;20049;-80
2022/04/23 03:40:42;;;;;;;13.63;11.18;;;;;;;9.84;nan;99191.63;5027173;28;20403;-80
2022/04/23 03:43:07;;;;;;;17.80;14.38;;;;;;;9.75;nan;99195.38;5029362;28;20466;-80
2022/04/23 03:45:33;;;;;;;14.25;11.73;;;;;;;9.69;nan;99194.25;5028994;28;20045;-80
2022/04/23 03:47:59;;;;;;;12.18;9.88;;;;;;;9.60;nan;99197.16;5028316;28;20029;-80
2022/04/23 03:50:25;;;;;;;15.07;12.35;;;;;;;9.49;nan;99201.06;5028282;28;20045;-80
2022/04/23 03:52:50;;;;;;;16.60;13.45;;;;;;;9.37;nan;99208.56;5014830;28;20056;-81
2022/04/23 03:55:15;;;;;;;13.10;10.63;;;;;;;9.32;nan;99214.38;5033247;28;20116;-80
2022/04/23 03:57:46;;;;;;;15.68;13.05;;;;;;;9.37;nan;99221.75;5032999;28;20038;-80
2022/04/23 04:00:13;;;;;;;14.98;12.40;;;;;;;9.52;nan;99214.69;5031520;28;20037;-80
2022/04/23 04:02:38;;;;;;;15.25;12.25;;;;;;;9.60;nan;99213.81;5014643;28;20095;-80
2022/04/23 04:05:04;;;;;;;13.13;10.57;;;;;;;9.62;nan;99208.34;5015000;28;20041;-80
2022/04/23 04:07:29;;;;;;;15.18;12.43;;;;;;;9.65;nan;99218.56;5032865;28;20095;-80
2022/04/23 04:09:55;;;;;;;18.75;14.25;;;;;;;9.69;nan;99204.81;5031722;28;20096;-80
2022/04/23 04:12:20;;;;;;;13.93;11.73;;;;;;;9.78;nan;99200.28;5016086;28;20033;-80
2022/04/23 04:14:45;;;;;;;13.30;11.13;;;;;;;9.80;nan;99203.59;5014788;28;20041;-80
2022/04/23 04:17:11;;;;;;;14.13;11.25;;;;;;;9.76;nan;99202.28;5015356;28;20511;-80
2022/04/23 04:19:38;;;;;;;15.60;12.82;;;;;;;9.63;nan;99209.97;5033709;28;20056;-80
2022/04/23 04:22:04;;;;;;;13.38;10.98;;;;;;;9.56;nan;99209.91;5019411;28;20455;-80
2022/04/23 04:24:31;;;;;;;12.07;9.98;;;;;;;9.51;nan;99217.50;5019375;28;20068;-81
2022/04/23 04:26:57;;;;;;;16.67;13.45;;;;;;;9.36;nan;99212.19;5037738;28;20034;-80
2022/04/23 04:29:25;;;;;;;17.20;13.30;;;;;;;9.41;nan;99207.19;5021587;28;20060;-83
2022/04/23 04:31:51;;;;;;;14.40;12.07;;;;;;;9.41;nan;99201.91;5022426;28;20522;-80
2022/04/23 04:34:24;;;;;;;14.32;11.50;;;;;;;9.32;nan;99200.34;5020881;28;20125;-81
2022/04/23 04:36:51;;;;;;;13.23;11.18;;;;;;;9.36;nan;99204.25;5040235;28;20033;-79
2022/04/23 04:39:18;;;;;;;16.33;12.80;;;;;;;9.35;nan;99197.34;5022236;28;20061;-81
2022/04/23 04:41:44;;;;;;;14.10;11.40;;;;;;;9.34;nan;99203.63;5039552;28;20065;-80
2022/04/23 04:44:10;;;;;;;17.00;14.00;;;;;;;9.19;nan;99200.13;5022293;28;20026;-80
2022/04/23 04:46:36;;;;;;;13.13;11.20;;;;;;;9.25;nan;99194.97;5023142;28;20087;-80
2022/04/23 04:49:03;;;;;;;14.57;12.05;;;;;;;9.28;nan;99201.69;5047294;28;20045;-84
2022/04/23 04:51:29;;;;;;;14.35;11.40;;;;;;;9.38;nan;99202.28;5034431;28;20679;-81
2022/04/23 04:53:55;;;;;;;13.40;11.55;;;;;;;9.42;nan;99197.47;5041781;28;20037;-80
2022/04/23 04:56:20;;;;;;;11.20;9.45;;;;;;;9.48;nan;99199.41;5023199;28;20029;-78
2022/04/23 04:58:46;;;;;;;14.07;11.65;;;;;;;9.50;nan;99195.56;5041159;28;20061;-81
2022/04/23 05:01:12;;;;;;;14.13;11.40;;;;;;;9.57;nan;99200.97;5045265;28;20034;-81
2022/04/23 05:03:39;;;;;;;13.15;10.88;;;;;;;9.69;nan;99194.25;5028776;28;20025;-80
2022/04/23 05:06:05;;;;;;;13.73;11.02;;;;;;;9.77;nan;99198.63;5043071;28;20080;-81
2022/04/23 05:08:31;;;;;;;11.25;9.20;;;;;;;9.87;nan;99204.50;5043837;28;20041;-79
2022/04/23 05:10:56;;;;;;;14.30;11.15;;;;;;;9.94;nan;99200.16;5023010;28;20116;-82
2022/04/23 05:13:22;;;;;;;12.15;10.38;;;;;;;10.04;nan;99204.34;5021379;28;20097;-83
2022/04/23 05:15:48;;;;;;;11.80;10.07;;;;;;;10.18;nan;99200.91;5022007;28;20112;-80
2022/04/23 05:18:14;;;;;;;13.55;10.63;;;;;;;10.29;nan;99203.09;5038095;28;20538;-83
2022/04/23 05:20:40;;;;;;;10.90;8.95;;;;;;;10.49;nan;99206.03;5021924;28;20041;-81
2022/04/23 05:23:06;;;;;;;9.43;8.15;;;;;;;10.70;nan;99215.84;5039892;28;20036;-78
2022/04/23 05:25:31;;;;;;;10.23;8.95;;;;;;;10.92;nan;99213.25;5020865;28;20176;-80
2022/04/23 05:27:58;;;;;;;11.43;8.00;;;;;;;11.13;nan;99217.72;5015692;28;20033;-81
2022/04/23 05:30:23;;;;;;;10.50;9.10;;;;;;;11.29;nan;99214.84;5018440;28;20069;-82
2022/04/23 05:32:49;;;;;;;9.95;8.30;;;;;;;11.51;nan;99223.59;5035733;28;20068;-80
2022/04/23 05:35:14;;;;;;;9.13;8.13;;;;;;;11.68;nan;99222.34;5036729;28;20072;-79
2022/04/23 05:37:40;;;;;;;10.00;8.10;;;;;;;11.89;nan;99221.53;5037685;28;20045;-80
2022/04/23 05:40:06;;;;;;;7.68;6.68;;;;;;;12.19;nan;99220.50;5032674;28;20038;-80
2022/04/23 05:42:31;;;;;;;9.52;8.25;;;;;;;12.46;nan;99222.28;5018774;28;20038;-80
2022/04/23 05:44:56;;;;;;;9.50;7.50;;;;;;;12.75;nan;99228.31;5036282;28;20133;-81
2022/04/23 05:47:22;;;;;;;7.97;6.90;;;;;;;13.07;nan;99229.47;5018640;28;20156;-81
2022/04/23 05:49:47;;;;;;;7.15;6.38;;;;;;;13.41;nan;99234.91;5019543;28;20044;-81
2022/04/23 05:52:12;;;;;;;8.85;7.10;;;;;;;13.61;nan;99241.06;5036467;28;20033;-81
2022/04/23 05:54:38;;;;;;;7.93;6.82;;;;;;;13.71;nan;99241.47;5020593;28;20052;-81
2022/04/23 05:57:03;;;;;;;8.75;7.53;;;;;;;13.89;nan;99238.19;5017976;28;20046;-81
2022/04/23 05:59:30;;;;;;;8.50;6.90;;;;;;;14.09;nan;99245.34;5032225;28;20445;-80
2022/04/23 06:01:55;;;;;;;6.43;5.35;;;;;;;14.43;nan;99236.28;5019476;28;20037;-81
2022/04/23 06:04:22;;;;;;;7.88;7.05;;;;;;;14.66;nan;99235.84;5022105;28;20064;-80
2022/04/23 06:06:48;;;;;;;6.45;5.47;;;;;;;14.86;nan;99241.91;5037165;28;20099;-81
2022/04/23 06:09:13;;;;;;;4.95;4.30;;;;;;;15.21;nan;99244.19;5037634;28;20562;-81
2022/04/23 06:11:39;;;;;;;7.85;6.60;;;;;;;15.25;nan;99248.06;5016724;28;20068;-82
2022/04/23 06:14:04;;;;;;;5.03;4.47;;;;;;;15.53;nan;99249.53;5035045;28;20073;-81
2022/04/23 06:16:30;;;;;;;6.72;5.60;;;;;;;15.95;nan;99251.72;5037200;28;20120;-82
2022/04/23 06:18:55;;;;;;;5.72;4.85;;;;;;;15.94;nan;99245.56;5018365;28;20429;-81
2022/04/23 06:21:21;;;;;;;5.35;4.50;;;;;;;16.06;nan;99246.47;5035852;28;20038;-81
2022/04/23 06:23:46;;;;;;;6.15;5.28;;;;;;;16.05;nan;99252.03;5017621;28;20116;-81
2022/04/23 06:26:12;;;;;;;6.45;4.88;;;;;;;16.16;nan;99258.50;5034967;28;20041;-81
2022/04/23 06:28:37;;;;;;;6.38;5.45;;;;;;;16.41;nan;99266.47;5035559;28;20041;-80
2022/04/23 06:31:03;;;;;;;6.38;4.70;;;;;;;16.37;nan;99263.41;5020989;28;20053;-81
2022/04/23 06:33:29;;;;;;;6.32;5.25;;;;;;;16.34;nan;99266.53;5033347;28;20113;-81
2022/04/23 06:35:54;;;;;;;6.10;5.30;;;;;;;16.10;nan;99270.84;5033836;28;20414;-81
2022/04/23 06:38:20;;;;;;;5.28;4.63;;;;;;;15.85;nan;99268.19;5034908;28;20128;-81
2022/04/23 06:40:45;;;;;;;4.95;4.45;;;;;;;15.73;nan;99275.25;5033997;28;20044;-81
2022/04/23 06:43:10;;;;;;;;;;;;;;;15.26;nan;99275.53;5017127;28;20103;-80
2022/04/23 06:45:36;;;;;;;5.37;4.67;;;;;;;14.97;nan;99263.53;5035714;28;19921;-81
2022/04/23 06:48:04;;;;;;;4.63;4.10;;;;;;;14.78;nan;99275.94;5038140;28;20034;-80
2022/04/23 06:50:34;;;;;;;5.57;4.45;;;;;;;14.66;nan;99273.09;5035057;28;20416;-79
2022/04/23 06:53:00;;;;;;;;;;;;;;;14.71;nan;99264.50;5035551;28;20039;-81
2022/04/23 06:55:25;;;;;;;4.30;3.90;;;;;;;14.81;nan;99268.31;5020863;28;19917;-81
2022/04/23 06:57:51;;;;;;;4.50;3.67;;;;;;;14.99;nan;99280.13;5034926;28;20096;-81
2022/04/23 07:00:16;;;;;;;5.85;3.70;;;;;;;15.09;nan;99272.53;5034339;28;20057;-81
2022/04/23 07:02:41;;;;;;;4.32;3.83;;;;;;;15.23;nan;99283.91;5017373;28;20045;-81
2022/04/23 07:05:08;;;;;;;4.10;3.28;;;;;;;15.49;nan;99280.28;5016457;28;20045;-80
2022/04/23 07:07:33;;;;;;;3.70;2.60;;;;;;;15.90;nan;99279.84;5017825;28;20038;-81
2022/04/23 07:09:59;;;;;;;3.75;3.25;;;;;;;16.44;nan;99276.69;5034700;28;20040;-81
2022/04/23 07:12:24;;;;;;;4.20;2.90;;;;;;;16.65;nan;99284.28;5034518;28;20040;-82
2022/04/23 07:14:51;;;;;;;3.88;3.20;;;;;;;16.60;nan;99281.47;5034693;28;20033;-82
2022/04/23 07:17:23;;;;;;;3.58;3.00;;;;;;;16.55;nan;99283.97;5016738;28;20095;-82
2022/04/23 07:19:48;;;;;;;3.20;2.78;;;;;;;16.65;nan;99286.13;5016074;28;20044;-82
2022/04/23 07:22:13;;;;;;;4.00;3.13;;;;;;;16.77;nan;99277.16;5032603;28;20033;-82
2022/04/23 07:24:39;;;;;;;3.42;2.60;;;;;;;16.71;nan;99282.59;5032644;28;20045;-82
2022/04/23 07:27:04;;;;;;;3.47;2.60;;;;;;;17.08;nan;99290.59;5031837;28;20125;-82
2022/04/23 07:29:30;;;;;;;3.65;2.72;;;;;;;17.19;nan;99285.31;5015844;28;20026;-81
2022/04/23 07:31:56;;;;;;;2.80;2.50;;;;;;;17.12;nan;99276.56;5031406;28;20064;-82
2022/04/23 07:39:49;;;;;;;2.85;2.15;;;;;;;17.46;nan;99279.59;5034854;28;20044;-80
2022/04/23 07:42:14;;;;;;;3.00;2.40;;;;;;;17.90;nan;99282.06;5014283;28;20030;-83
2022/04/23 07:44:40;;;;;;;4.13;2.78;;;;;;;18.44;nan;99285.47;5016870;28;20116;-83
2022/04/23 07:47:06;;;;;;;3.00;2.53;;;;;;;18.55;nan;99284.66;5016105;28;20120;-83
2022/04/23 07:49:31;;;;;;;3.33;2.53;;;;;;;18.74;nan;99263.09;5015817;28;20064;-83
2022/04/23 07:51:57;;;;;;;3.40;2.65;;;;;;;18.48;nan;99273.25;5018378;28;20513;-82
2022/04/23 07:54:23;;;;;;;3.00;2.50;;;;;;;18.17;nan;99271.75;4998707;28;20045;-82
2022/04/23 07:56:48;;;;;;;2.75;2.40;;;;;;;18.20;nan;99276.63;5013585;28;20050;-82
2022/04/23 07:59:14;;;;;;;4.53;3.00;;;;;;;18.10;nan;99274.53;4992805;28;20696;-82
2022/04/23 08:01:40;;;;;;;3.88;3.00;;;;;;;18.03;nan;99288.03;5023012;28;20073;-83
2022/04/23 08:04:06;;;;;;;3.70;3.00;;;;;;;17.83;nan;99277.66;5016116;28;20046;-82
2022/04/23 08:06:32;;;;;;;2.97;2.40;;;;;;;18.15;nan;99273.84;5033775;28;20045;-82
2022/04/23 08:08:59;;;;;;;3.30;2.75;;;;;;;18.69;nan;99285.22;5034234;28;20506;-83
2022/04/23 08:11:25;;;;;;;3.67;2.65;;;;;;;18.77;nan;99276.03;5017936;28;20095;-82
2022/04/23 08:13:50;;;;;;;3.15;2.60;;;;;;;18.92;nan;99275.53;5017469;28;20466;-82
2022/04/23 08:16:16;;;;;;;2.90;2.30;;;;;;;19.02;nan;99279.25;5022483;28;20030;-82
2022/04/23 08:18:41;;;;;;;3.65;2.60;;;;;;;19.34;nan;99277.97;5033085;28;20502;-83
2022/04/23 08:21:07;;;;;;;3.30;2.63;;;;;;;19.34;nan;99275.28;5033380;28;20029;-83
2022/04/23 08:23:35;;;;;;;4.20;2.90;;;;;;;19.57;nan;99285.91;5016039;28;20626;-82
2022/04/23 08:26:05;;;;;;;3.42;2.60;;;;;;;19.53;nan;99282.06;5022612;28;20041;-83
2022/04/23 08:31:15;;;;;;;3.00;2.40;;;;;;;19.57;nan;99283.22;5031817;28;20059;-83
2022/04/23 08:33:58;;;;;;;3.53;2.63;;;;;;;19.99;nan;99282.06;5013480;28;20037;-79
2022/04/23 08:36:36;;;;;;;3.05;2.40;;;;;;;20.03;nan;99278.66;5030159;28;20029;-81
2022/04/23 08:39:06;;;;;;;2.78;2.45;;;;;;;19.72;nan;99283.50;5002569;28;20041;-81
2022/04/23 08:41:33;;;;;;;2.27;1.70;;;;;;;20.15;nan;99279.38;5012516;28;20037;-81
2022/04/23 08:44:07;;;;;;;3.00;2.15;;;;;;;20.53;nan;99282.34;5002582;28;20069;-84
2022/04/23 08:46:38;;;;;;;3.33;2.70;;;;;;;20.04;nan;99280.25;5007933;28;20118;-82
2022/04/23 08:49:13;;;;;;;3.75;2.63;;;;;;;19.42;nan;99275.69;5018466;28;20045;-82
2022/04/23 08:51:40;;;;;;;3.10;2.47;;;;;;;19.01;nan;99276.81;5038178;28;20091;-83
2022/04/23 08:54:13;;;;;;;3.17;2.25;;;;;;;19.09;nan;99279.94;5041290;28;20038;-81
2022/04/23 08:56:41;;;;;;;3.15;2.60;;;;;;;18.84;nan;99282.91;5026272;28;20033;-82
2022/04/23 08:59:08;;;;;;;2.90;2.53;;;;;;;18.94;nan;99276.94;5017859;28;20034;-81
2022/04/23 09:01:36;;;;;;;2.90;2.45;;;;;;;19.32;nan;99280.88;5019360;28;20116;-82
2022/04/23 09:04:02;;;;;;;2.95;2.50;;;;;;;19.71;nan;99287.25;5017108;28;20088;-83
2022/04/23 09:06:35;;;;;;;3.85;2.40;;;;;;;20.35;nan;99280.72;5000411;28;20052;-82
2022/04/23 09:09:16;;;;;;;3.10;2.45;;;;;;;20.06;nan;99280.03;5024237;28;20657;-83
2022/04/23 09:11:49;;;;;;;3.15;2.20;;;;;;;19.97;nan;99279.63;5021212;28;20409;-82
2022/04/23 09:14:33;;;;;;;2.38;1.92;;;;;;;19.99;nan;99279.38;5012908;28;20428;-84
2022/04/23 09:25:36;;;;;;;2.55;2.17;;;;;;;20.35;nan;99286.94;5036816;28;20112;-83
2022/04/23 09:28:17;;;;;;;2.78;2.30;;;;;;;19.78;nan;99291.63;5021840;28;20099;-83
2022/04/23 09:30:43;;;;;;;4.38;2.40;;;;;;;19.45;nan;99298.53;5018305;28;20042;-82
2022/04/23 09:33:10;;;;;;;3.45;2.88;;;;;;;18.97;nan;99283.69;5037236;28;20043;-82
2022/04/23 09:35:35;;;;;;;3.40;2.90;;;;;;;18.64;nan;99290.47;5035861;28;20026;-81
2022/04/23 09:38:20;;;;;;;3.10;2.80;;;;;;;18.58;nan;99302.94;5036472;28;20068;-82
2022/04/23 09:40:55;;;;;;;3.60;3.05;;;;;;;18.56;nan;99290.81;5032160;28;20100;-83
2022/04/23 09:43:32;;;;;;;3.40;2.72;;;;;;;18.32;nan;99301.53;5015864;28;20053;-82
2022/04/23 09:46:05;;;;;;;2.78;2.20;;;;;;;18.42;nan;99291.09;5035617;28;20068;-82
2022/04/23 09:48:30;;;;;;;3.42;2.78;;;;;;;18.65;nan;99289.41;5015934;28;20128;-82
2022/04/23 09:50:57;;;;;;;3.53;3.00;;;;;;;18.74;nan;99293.38;5021813;28;20053;-82
2022/04/23 09:53:30;;;;;;;4.35;3.30;;;;;;;18.45;nan;99290.59;5022279;28;20041;-83
2022/04/23 09:56:01;;;;;;;4.25;3.40;;;;;;;18.20;nan;99290.00;5036651;28;20454;-81
2022/04/23 09:58:29;;;;;;;;;;;;;;;18.26;nan;99289.09;5018343;28;20037;-82
2022/04/23 10:00:56;;;;;;;4.35;3.50;;;;;;;18.26;nan;99286.44;5029959;28;20011;-82
2022/04/23 10:03:28;;;;;;;3.72;2.97;;;;;;;17.92;nan;99290.69;5008849;28;20376;-79
2022/04/23 10:05:54;;;;;;;4.03;3.55;;;;;;;17.91;nan;99286.38;5016235;28;20042;-79
2022/04/23 10:08:26;;;;;;;3.85;3.13;;;;;;;17.87;nan;99288.69;4996150;28;20052;-81
2022/04/23 10:11:14;;;;;;;3.90;3.35;;;;;;;18.54;nan;99288.38;5006200;28;20578;-80
2022/04/23 10:13:41;;;;;;;3.05;2.55;;;;;;;18.99;nan;99281.56;5010387;28;20049;-79
2022/04/23 10:16:08;;;;;;;4.38;3.42;;;;;;;19.03;nan;99288.09;4999084;28;20037;-80
2022/04/23 10:18:38;;;;;;;5.78;4.32;;;;;;;18.67;nan;99281.97;5020216;28;20041;-78
2022/04/23 10:21:08;;;;;;;3.55;3.13;;;;;;;18.95;nan;99283.09;5003335;28;20037;-81
2022/04/23 10:23:59;;;;;;;3.45;2.85;;;;;;;19.15;nan;99280.81;5008899;28;20033;-80
2022/04/23 10:26:38;;;;;;;;;;;;;;;18.96;nan;99272.16;5032873;28;20041;-80
2022/04/23 10:29:11;;;;;;;4.50;3.67;;;;;;;18.91;nan;99284.63;5032850;28;19921;-80
2022/04/23 10:31:37;;;;;;;5.45;3.70;;;;;;;18.50;nan;99283.75;5034113;28;20037;-81
2022/04/23 10:34:03;;;;;;;4.35;3.63;;;;;;;18.56;nan;99278.25;5017598;28;20026;-80
2022/04/23 10:36:29;;;;;;;4.50;3.15;;;;;;;18.84;nan;99271.38;5035675;28;20033;-80
2022/04/23 10:39:24;;;;;;;5.15;3.65;;;;;;;18.97;nan;99275.63;5038552;28;20065;-80
2022/04/23 10:41:53;;;;;;;3.55;3.10;;;;;;;18.72;nan;99279.41;5041067;28;20032;-80
2022/04/23 10:44:22;;;;;;;5.25;3.28;;;;;;;18.72;nan;99268.69;5038454;28;20029;-80
2022/04/23 10:46:48;;;;;;;3.72;3.17;;;;;;;18.78;nan;99261.59;5011902;28;20498;-80
2022/04/23 10:49:20;;;;;;;4.47;3.13;;;;;;;18.94;nan;99265.41;5035280;28;20048;-82
2022/04/23 10:51:56;;;;;;;3.35;2.95;;;;;;;18.96;nan;99258.75;5038816;28;20071;-82
2022/04/23 10:54:54;;;;;;;4.03;3.10;;;;;;;18.91;nan;99257.84;5020169;28;20483;-81
2022/04/23 10:57:19;;;;;;;3.40;2.80;;;;;;;19.05;nan;99251.97;5017698;28;20068;-81
2022/04/23 10:59:47;;;;;;;3.25;2.85;;;;;;;19.00;nan;99261.78;5037300;28;20427;-82
2022/04/23 11:02:29;;;;;;;3.92;3.17;;;;;;;18.93;nan;99253.88;5033987;28;20061;-80
2022/04/23 11:13:37;;;;;;;3.92;2.50;;;;;;;19.32;nan;99251.41;5032760;28;20052;-81
2022/04/23 11:16:16;;;;;;;3.58;2.60;;;;;;;19.37;nan;99248.00;5033040;28;20120;-81
2022/04/23 11:18:43;;;;;;;3.05;2.50;;;;;;;19.51;nan;99250.13;5030044;28;20057;-82
2022/04/23 11:21:14;;;;;;;3.65;2.50;;;;;;;19.48;nan;99245.25;5013925;28;20033;-81
2022/04/23 11:23:42;;;;;;;3.28;2.35;;;;;;;19.68;nan;99249.38;5032466;28;20045;-81
2022/04/23 11:26:11;;;;;;;3.63;3.03;;;;;;;19.65;nan;99245.28;5019144;28;20022;-81
2022/04/23 11:28:37;;;;;;;3.30;3.00;;;;;;;19.13;nan;99240.06;5016599;28;20049;-80
2022/04/23 11:31:10;;;;;;;4.30;2.97;;;;;;;19.16;nan;99238.75;5029979;28;20037;-80
2022/04/23 11:33:36;;;;;;;3.50;2.70;;;;;;;18.99;nan;99236.03;5032508;28;20040;-81
2022/04/23 11:36:02;;;;;;;3.28;2.83;;;;;;;19.19;nan;99228.41;5034557;28;20121;-81
2022/04/23 11:38:29;;;;;;;3.17;2.70;;;;;;;19.02;nan;99235.56;5016910;28;20041;-81
2022/04/23 11:40:54;;;;;;;4.78;3.33;;;;;;;18.86;nan;99229.09;5032605;28;20101;-81
2022/04/23 11:43:31;;;;;;;3.22;2.67;;;;;;;18.99;nan;99223.44;5014273;28;20045;-83
2022/04/23 11:46:04;;;;;;;3.30;2.42;;;;;;;19.35;nan;99229.47;5033848;28;20030;-82
2022/04/23 11:48:39;;;;;;;3.22;2.58;;;;;;;19.50;nan;99220.91;5030485;28;20045;-82
2022/04/23 11:51:06;;;;;;;4.05;2.85;;;;;;;19.39;nan;99229.81;5007332;28;20057;-81
2022/04/23 11:53:53;;;;;;;4.95;3.08;;;;;;;19.28;nan;99232.31;5032512;28;20102;-81
2022/04/23 11:56:28;;;;;;;4.18;2.83;;;;;;;19.23;nan;99234.88;5032823;28;20052;-82
2022/04/23 11:58:58;;;;;;;3.47;2.40;;;;;;;18.94;nan;99227.91;5028686;28;20072;-81
2022/04/23 12:01:25;;;;;;;4.45;2.97;;;;;;;18.95;nan;99225.00;5016425;28;20037;-81
2022/04/23 12:03:51;;;;;;;4.32;2.47;;;;;;;19.19;nan;99225.72;5008267;28;20096;-82
2022/04/23 12:06:17;;;;;;;3.72;3.10;;;;;;;19.00;nan;99222.41;5032478;28;20034;-82
2022/04/23 12:08:42;;;;;;;4.93;3.08;;;;;;;18.92;nan;99224.66;5033463;28;20189;-81
2022/04/23 12:11:29;;;;;;;3.00;2.60;;;;;;;18.86;nan;99229.91;5015995;28;20120;-83